Time;durP1;ratioP1;P1;durP2;ratioP2;P2;SDS_P1;SDS_P2;PMS_P1;PMS_P2;Temp;Humidity;BMP_temperature;BMP_pressure;BME280_temperature;BME280_humidity;BME280_pressure;Samples;Min_cycle;Max_cycle;Signal;HPM_P1;HPM_P2
2023/01/29 00:02:12;;;;;;;26.20;9.75;;;;;;;5.96;76.27;101544.44;4994125;28;20044;-47
2023/01/29 00:04:41;;;;;;;21.55;9.00;;;;;;;5.96;74.78;101544.44;4990011;28;20392;-46
2023/01/29 00:07:12;;;;;;;20.50;8.30;;;;;;;5.95;75.78;101547.84;4987171;28;20038;-46
2023/01/29 00:09:42;;;;;;;23.60;9.80;;;;;;;5.94;74.94;101551.25;4988376;28;20136;-45
2023/01/29 00:12:11;;;;;;;22.85;10.07;;;;;;;5.94;76.34;101551.25;4992380;28;20490;-47
2023/01/29 00:14:40;;;;;;;17.67;7.32;;;;;;;5.94;76.39;101552.09;4989667;28;20077;-47
2023/01/29 00:17:09;;;;;;;17.23;8.00;;;;;;;5.94;75.18;101551.25;4993706;28;20120;-46
2023/01/29 00:19:35;;;;;;;25.98;9.75;;;;;;;5.95;75.98;101550.41;4989578;28;20471;-47
2023/01/29 00:22:02;;;;;;;26.38;10.80;;;;;;;5.95;74.98;101537.56;4995739;28;20050;-45
2023/01/29 00:24:29;;;;;;;26.67;10.00;;;;;;;5.94;75.88;101552.09;4987987;28;20569;-47
2023/01/29 00:26:55;;;;;;;18.67;8.05;;;;;;;5.95;74.84;101552.97;5001927;28;20140;-46
2023/01/29 00:29:22;;;;;;;15.93;7.57;;;;;;;5.94;76.20;101553.81;4996773;28;20057;-45
2023/01/29 00:31:49;;;;;;;19.33;8.43;;;;;;;5.94;76.09;101546.09;4992872;28;20100;-45
2023/01/29 00:34:16;;;;;;;20.13;7.18;;;;;;;5.94;74.98;101540.94;4994035;28;20042;-44
2023/01/29 00:36:44;;;;;;;15.73;6.97;;;;;;;5.94;76.34;101546.09;4997013;28;20050;-45
2023/01/29 00:39:11;;;;;;;18.48;7.45;;;;;;;5.93;74.93;101540.06;4996008;28;20053;-46
2023/01/29 00:49:59;;;;;;;11.05;4.75;;;;;;;5.90;74.85;101545.06;4998096;28;20049;-45
2023/01/29 00:52:27;;;;;;;14.05;6.40;;;;;;;5.90;75.60;101550.22;4999553;28;20145;-46
2023/01/29 00:54:57;;;;;;;13.02;4.55;;;;;;;5.89;75.46;101558.75;4995982;28;20053;-45
2023/01/29 00:57:26;;;;;;;10.88;5.30;;;;;;;5.88;75.04;101557.88;4993638;28;20099;-47
2023/01/29 00:59:53;;;;;;;11.13;4.90;;;;;;;5.86;75.41;101541.50;5002168;28;20474;-46
2023/01/29 01:05:12;;;;;;;15.13;5.40;;;;;;;5.82;75.48;101547.34;5003883;28;20053;-47
2023/01/29 01:07:40;;;;;;;14.13;5.82;;;;;;;5.81;75.59;101545.56;5005484;28;20073;-47
2023/01/29 01:10:27;;;;;;;11.52;5.20;;;;;;;5.82;74.30;101549.91;5005445;28;20045;-45
2023/01/29 01:12:57;;;;;;;8.82;4.40;;;;;;;5.79;75.83;101542.06;5000085;28;20054;-46
2023/01/29 01:15:27;;;;;;;9.45;4.45;;;;;;;5.79;75.93;101530.09;4997035;28;20169;-45
2023/01/29 01:17:56;;;;;;;12.27;4.68;;;;;;;5.78;74.27;101530.91;4995995;28;20056;-48
2023/01/29 01:20:25;;;;;;;11.30;4.75;;;;;;;5.75;74.78;101530.75;4993734;28;20135;-46
2023/01/29 01:22:54;;;;;;;9.32;4.22;;;;;;;5.75;75.01;101524.75;4992462;28;20050;-48
2023/01/29 01:25:24;;;;;;;9.18;4.00;;;;;;;5.71;75.37;101530.59;4999814;28;20065;-47
2023/01/29 01:27:55;;;;;;;10.90;4.72;;;;;;;5.70;75.42;101526.25;4997558;28;20057;-46
2023/01/29 01:30:25;;;;;;;11.98;4.00;;;;;;;5.69;75.40;101519.34;4993218;28;20569;-47
2023/01/29 01:32:53;;;;;;;9.82;4.10;;;;;;;5.66;75.52;101515.88;5002959;28;20042;-46
2023/01/29 01:35:22;;;;;;;9.48;3.92;;;;;;;5.65;74.43;101513.22;4998658;28;20046;-46
2023/01/29 01:37:50;;;;;;;10.80;5.30;;;;;;;5.65;75.68;101514.09;5002687;28;20053;-47
2023/01/29 01:40:22;;;;;;;10.65;4.20;;;;;;;5.61;74.62;101509.63;5001521;28;20046;-46
2023/01/29 01:42:53;;;;;;;11.65;4.82;;;;;;;5.61;75.16;101517.34;4998216;28;20049;-46
2023/01/29 01:45:33;;;;;;;8.20;3.10;;;;;;;5.55;74.98;101511.97;4998855;28;20105;-45
2023/01/29 01:53:25;;;;;;;10.13;4.50;;;;;;;5.57;74.95;101509.47;5007365;28;20407;-45
2023/01/29 01:55:59;;;;;;;10.95;4.93;;;;;;;5.57;74.67;101512.91;4999192;28;20054;-45
2023/01/29 01:58:32;;;;;;;10.23;4.25;;;;;;;5.57;74.78;101514.59;4980973;28;20078;-45
2023/01/29 02:01:00;;;;;;;8.55;4.40;;;;;;;5.55;74.81;101511.97;4980441;28;20392;-44
2023/01/29 02:11:57;;;;;;;7.53;3.55;;;;;;;5.49;75.59;101486.00;4982431;28;20050;-46
2023/01/29 02:14:24;;;;;;;9.20;4.03;;;;;;;5.51;76.03;101489.53;4988675;28;20062;-46
2023/01/29 02:16:50;;;;;;;7.35;4.50;;;;;;;5.49;75.86;101476.63;4982976;28;20527;-45
2023/01/29 02:19:34;;;;;;;7.53;3.58;;;;;;;5.50;75.85;101462.94;4981548;28;20141;-45
2023/01/29 02:22:11;;;;;;;;;;;;;;;5.42;74.92;101463.44;4983312;28;20644;-46
2023/01/29 02:25:08;;;;;;;7.63;3.28;;;;;;;5.44;75.75;101462.66;4982114;28;19926;-46
2023/01/29 02:30:39;;;;;;;9.63;4.30;;;;;;;5.44;76.26;101466.97;5050442;28;20414;-47
2023/01/29 02:38:44;;;;;;;9.85;3.45;;;;;;;5.43;74.98;101444.66;5055382;28;20427;-45
2023/01/29 02:43:58;;;;;;;7.53;4.30;;;;;;;5.37;75.75;101446.13;5052702;27;20402;-45
2023/01/29 02:49:23;;;;;;;7.47;3.00;;;;;;;5.33;75.76;101448.53;5035322;28;20391;-47
2023/01/29 02:52:01;;;;;;;6.80;3.00;;;;;;;5.32;75.44;101452.78;5020676;28;20752;-44
2023/01/29 02:54:42;;;;;;;9.45;3.15;;;;;;;5.31;76.00;101451.03;5020337;28;20077;-45
2023/01/29 02:57:19;;;;;;;6.60;2.78;;;;;;;5.27;76.57;101439.72;5022882;28;20553;-44
2023/01/29 03:00:05;;;;;;;;;;;;;;;5.20;76.35;101427.44;5018397;28;20072;-45
2023/01/29 03:02:41;;;;;;;8.60;2.80;;;;;;;5.23;75.55;101432.72;5018565;28;20012;-44
2023/01/29 03:05:16;;;;;;;9.50;3.20;;;;;;;5.23;75.85;101419.88;5019419;28;20045;-46
2023/01/29 03:07:51;;;;;;;7.28;2.90;;;;;;;5.23;76.28;101421.56;5022904;28;20111;-45
2023/01/29 03:10:23;;;;;;;7.22;2.40;;;;;;;5.22;75.82;101419.81;5022770;28;20060;-44
2023/01/29 03:12:56;;;;;;;5.22;2.25;;;;;;;5.22;76.07;101415.56;5022814;28;20084;-45
2023/01/29 03:15:30;;;;;;;5.75;2.42;;;;;;;5.22;76.28;101414.66;5021621;28;20091;-45
2023/01/29 03:18:04;;;;;;;7.10;2.63;;;;;;;5.21;75.50;101402.66;5019167;28;20137;-45
2023/01/29 03:20:37;;;;;;;10.18;3.10;;;;;;;5.20;76.49;101411.19;5023295;28;20054;-45
2023/01/29 03:23:12;;;;;;;9.38;3.75;;;;;;;5.18;75.88;101407.66;5018740;28;20072;-46
2023/01/29 03:34:15;;;;;;;9.30;4.07;;;;;;;5.00;75.47;101382.97;5018841;28;20049;-45
2023/01/29 03:36:49;;;;;;;11.85;4.53;;;;;;;4.97;76.17;101383.69;5022037;28;20049;-45
2023/01/29 03:39:16;;;;;;;9.10;4.28;;;;;;;4.92;75.35;101385.22;5020435;28;20046;-45
2023/01/29 03:41:50;;;;;;;8.07;4.05;;;;;;;4.89;75.58;101400.47;5021840;28;20104;-45
2023/01/29 03:47:03;;;;;;;11.45;4.55;;;;;;;4.84;76.17;101387.47;5088687;27;20397;-44
2023/01/29 03:49:38;;;;;;;;;;;;;;;4.77;76.28;101382.88;5086347;28;20445;-45
2023/01/29 03:52:16;;;;;;;14.95;4.82;;;;;;;4.79;75.83;101383.81;5082569;28;19972;-45
2023/01/29 03:55:09;;;;;;;11.38;4.68;;;;;;;4.77;76.11;101390.59;5085378;28;20052;-46
2023/01/29 03:57:44;;;;;;;11.23;4.18;;;;;;;4.80;75.37;101385.56;5067515;28;20076;-47
2023/01/29 04:00:24;;;;;;;11.18;5.70;;;;;;;4.81;75.41;101382.19;5054315;28;20719;-45
2023/01/29 04:03:06;;;;;;;13.38;4.68;;;;;;;4.82;76.10;101386.50;5059299;28;20546;-46
2023/01/29 04:05:57;;;;;;;9.43;4.70;;;;;;;4.80;75.96;101385.56;5058271;28;20072;-46
2023/01/29 04:08:29;;;;;;;11.82;5.13;;;;;;;4.84;75.52;101387.47;5043537;28;20074;-44
2023/01/29 04:11:01;;;;;;;12.80;4.75;;;;;;;4.86;76.01;101379.81;5060478;28;20059;-45
2023/01/29 04:13:32;;;;;;;12.93;5.40;;;;;;;4.86;75.68;101375.56;5057118;28;20049;-45
2023/01/29 04:16:03;;;;;;;13.50;5.40;;;;;;;4.88;75.19;101378.19;5052230;28;20049;-45
2023/01/29 04:18:30;;;;;;;13.25;6.03;;;;;;;4.86;75.23;101359.25;5057876;28;20761;-46
2023/01/29 04:20:58;;;;;;;13.32;5.35;;;;;;;4.85;75.86;101363.53;5072313;28;20056;-44
2023/01/29 04:23:26;;;;;;;11.90;5.22;;;;;;;4.86;75.50;101360.16;5056678;28;20078;-44
2023/01/29 04:26:27;;;;;;;11.35;4.22;;;;;;;4.82;75.43;101358.28;5061444;28;20067;-44
2023/01/29 04:32:18;;;;;;;10.27;4.20;;;;;;;4.82;75.54;101358.28;5043875;27;20414;-44
2023/01/29 04:35:20;;;;;;;9.57;4.28;;;;;;;4.77;75.96;101349.50;5028915;28;20537;-44
2023/01/29 04:40:38;;;;;;;10.27;4.45;;;;;;;4.80;76.17;101341.91;5035004;27;20403;-44
2023/01/29 04:43:14;;;;;;;7.88;4.38;;;;;;;4.82;75.90;101337.72;5021927;28;20046;-46
2023/01/29 04:54:22;;;;;;;11.50;3.78;;;;;;;4.82;75.87;101326.56;5098649;27;20491;-46
2023/01/29 04:59:32;;;;;;;10.15;5.70;;;;;;;4.85;76.09;101317.34;5021740;27;20406;-45
2023/01/29 05:02:01;;;;;;;10.20;5.35;;;;;;;4.84;76.16;101328.41;5018012;28;20141;-44
2023/01/29 05:04:31;;;;;;;9.63;5.88;;;;;;;4.84;75.75;101324.97;5017001;28;20172;-47
2023/01/29 05:07:03;;;;;;;12.68;5.68;;;;;;;4.83;76.11;101310.38;5014454;28;20137;-44
2023/01/29 05:09:31;;;;;;;10.98;5.70;;;;;;;4.81;75.38;101305.19;5012527;28;20052;-46
2023/01/29 05:11:59;;;;;;;10.15;5.82;;;;;;;4.82;76.20;101295.78;5013797;28;20065;-45
2023/01/29 05:14:29;;;;;;;9.10;5.72;;;;;;;4.79;75.71;101291.38;5016465;28;20599;-46
2023/01/29 05:17:00;;;;;;;12.60;4.50;;;;;;;4.80;76.46;101282.88;5023709;28;20813;-46
2023/01/29 05:19:27;;;;;;;13.43;5.72;;;;;;;4.79;76.30;101291.38;5012462;28;20053;-45
2023/01/29 05:21:54;;;;;;;15.40;6.53;;;;;;;4.80;76.26;101282.00;5011631;28;20072;-47
2023/01/29 05:24:23;;;;;;;10.95;6.65;;;;;;;4.79;75.90;101276.00;5018602;28;20069;-46
2023/01/29 05:29:44;;;;;;;10.70;5.32;;;;;;;4.77;75.84;101275.06;5015638;28;20084;-44
2023/01/29 05:32:11;;;;;;;10.80;5.72;;;;;;;4.77;75.79;101275.06;5008044;28;20042;-45
2023/01/29 05:34:38;;;;;;;10.50;5.60;;;;;;;4.76;76.41;101273.28;5022234;28;20476;-45
2023/01/29 05:37:05;;;;;;;8.82;4.93;;;;;;;4.77;76.76;101267.38;5014276;28;20053;-46
2023/01/29 05:39:31;;;;;;;9.60;5.53;;;;;;;4.76;76.78;101263.91;5009540;28;20054;-45
2023/01/29 05:41:58;;;;;;;9.40;5.63;;;;;;;4.75;76.71;101254.47;5018119;28;20046;-44
2023/01/29 05:44:25;;;;;;;12.68;6.15;;;;;;;4.76;76.71;101250.19;5014394;28;20057;-45
2023/01/29 05:46:52;;;;;;;11.32;6.50;;;;;;;4.76;75.89;101245.06;5013785;28;20056;-44
2023/01/29 05:49:19;;;;;;;12.45;5.80;;;;;;;4.78;75.83;101247.69;5013766;28;20569;-44
2023/01/29 05:51:46;;;;;;;10.70;4.97;;;;;;;4.77;76.83;101244.28;5012737;28;20049;-44
2023/01/29 05:54:13;;;;;;;12.77;6.18;;;;;;;4.78;76.78;101252.81;5016967;28;20046;-46
2023/01/29 05:56:40;;;;;;;11.30;5.43;;;;;;;4.77;75.51;101251.97;5012552;28;20058;-46
2023/01/29 05:59:06;;;;;;;10.63;5.78;;;;;;;4.79;76.56;101254.59;5013802;28;20096;-45
2023/01/29 06:01:33;;;;;;;11.32;5.72;;;;;;;4.74;76.39;101246.69;5018590;28;20124;-46
2023/01/29 06:04:00;;;;;;;11.13;5.60;;;;;;;4.76;75.96;101251.06;5007144;28;20525;-46
2023/01/29 06:06:27;;;;;;;11.30;5.35;;;;;;;4.76;76.15;101245.06;5007664;28;20062;-45
2023/01/29 06:08:54;;;;;;;11.18;6.40;;;;;;;4.77;76.13;101239.13;5008842;28;20046;-46
2023/01/29 06:11:22;;;;;;;12.57;6.00;;;;;;;4.78;76.87;101250.25;4999708;28;20056;-45
2023/01/29 06:13:48;;;;;;;11.80;6.50;;;;;;;4.78;76.17;101235.75;4993851;28;20064;-44
2023/01/29 06:16:16;;;;;;;12.00;5.55;;;;;;;4.77;76.94;101236.56;5003730;28;20054;-44
2023/01/29 06:18:42;;;;;;;10.25;5.72;;;;;;;4.77;76.60;101236.56;5001186;28;20132;-45
2023/01/29 06:21:12;;;;;;;11.52;5.82;;;;;;;4.77;76.53;101239.13;5005134;28;20049;-45
2023/01/29 06:23:39;;;;;;;12.07;6.05;;;;;;;4.79;76.50;101245.19;4999156;28;20150;-44
2023/01/29 06:26:09;;;;;;;15.93;5.93;;;;;;;4.81;76.43;101238.44;5002620;28;20092;-46
2023/01/29 06:28:37;;;;;;;11.10;6.13;;;;;;;4.84;76.68;101236.00;4994550;28;20124;-46
2023/01/29 06:31:05;;;;;;;9.60;5.70;;;;;;;4.84;77.36;101223.16;5000584;28;20133;-45
2023/01/29 06:33:52;;;;;;;12.13;5.65;;;;;;;4.84;76.51;101228.31;4993371;28;20130;-45
2023/01/29 06:36:19;;;;;;;10.80;5.95;;;;;;;4.84;76.49;101223.16;4997664;28;20057;-44
2023/01/29 06:38:46;;;;;;;11.77;5.90;;;;;;;4.84;77.43;101218.03;4999664;28;20043;-43
2023/01/29 06:41:16;;;;;;;10.05;5.43;;;;;;;4.85;77.17;101217.22;5001031;28;20042;-45
2023/01/29 06:43:44;;;;;;;10.23;5.85;;;;;;;4.84;77.01;101210.34;5000872;28;20046;-44
2023/01/29 06:46:11;;;;;;;10.90;6.22;;;;;;;4.85;76.53;101219.78;5001955;28;20136;-46
2023/01/29 06:48:38;;;;;;;12.40;5.90;;;;;;;4.84;77.15;101219.72;4997059;28;20103;-47
2023/01/29 06:51:07;;;;;;;12.00;5.82;;;;;;;4.86;76.89;101207.78;5002641;28;20104;-45
2023/01/29 06:53:35;;;;;;;10.82;5.20;;;;;;;4.85;77.32;101212.06;5000419;28;20131;-47
2023/01/29 06:56:02;;;;;;;10.93;5.75;;;;;;;4.84;76.98;101205.19;4985968;28;20037;-47
2023/01/29 06:58:29;;;;;;;10.57;5.60;;;;;;;4.83;77.78;101193.16;5001802;28;20070;-45
2023/01/29 07:01:06;;;;;;;9.57;5.20;;;;;;;4.82;76.75;101186.28;4994254;28;20094;-44
2023/01/29 07:03:35;;;;;;;11.40;5.40;;;;;;;4.82;76.87;101185.38;4995895;28;20046;-45
2023/01/29 07:06:03;;;;;;;12.48;5.75;;;;;;;4.82;77.86;101193.09;5002348;28;20045;-48
2023/01/29 07:08:30;;;;;;;13.00;5.43;;;;;;;4.80;77.21;101182.75;4994469;28;20042;-44
2023/01/29 07:10:59;;;;;;;10.25;4.88;;;;;;;4.80;77.58;101184.47;5005790;28;20049;-45
2023/01/29 07:13:26;;;;;;;10.23;4.72;;;;;;;4.79;77.05;101181.00;5000395;28;20076;-45
2023/01/29 07:15:53;;;;;;;10.23;4.95;;;;;;;4.79;77.50;101193.00;4999431;28;20104;-45
2023/01/29 07:18:19;;;;;;;9.20;5.35;;;;;;;4.78;77.23;101186.09;5004080;28;20136;-45
2023/01/29 07:20:46;;;;;;;11.45;5.10;;;;;;;4.78;77.81;101197.25;4996239;28;20101;-44
2023/01/29 07:23:14;;;;;;;13.93;5.95;;;;;;;4.79;77.21;101188.72;4996988;28;20057;-45
2023/01/29 07:25:41;;;;;;;9.00;5.25;;;;;;;4.79;77.93;101188.72;5000542;28;20050;-45
2023/01/29 07:28:08;;;;;;;10.80;4.88;;;;;;;4.79;77.35;101183.59;4997482;28;20133;-46
2023/01/29 07:30:35;;;;;;;9.10;4.65;;;;;;;4.81;77.73;101187.09;4999528;28;20042;-47
2023/01/29 07:33:05;;;;;;;11.27;5.32;;;;;;;4.85;78.14;101183.84;4998845;28;20146;-46
2023/01/29 07:35:42;;;;;;;9.15;4.90;;;;;;;4.81;77.46;101187.09;4988374;28;20065;-46
2023/01/29 07:38:09;;;;;;;10.50;5.28;;;;;;;4.83;77.27;101190.59;4992468;28;20108;-44
2023/01/29 07:40:36;;;;;;;12.07;5.00;;;;;;;4.84;77.86;101191.47;4989800;28;20048;-46
2023/01/29 07:43:06;;;;;;;10.48;5.18;;;;;;;4.86;78.06;101183.00;4991395;28;20054;-45
2023/01/29 07:45:35;;;;;;;11.07;5.80;;;;;;;4.87;78.25;101187.31;4988226;28;20038;-45
2023/01/29 07:48:04;;;;;;;10.10;4.95;;;;;;;4.88;77.97;101180.50;4991064;28;20077;-45
2023/01/29 07:50:32;;;;;;;10.13;5.22;;;;;;;4.91;77.50;101188.34;4987979;28;20120;-46
2023/01/29 07:52:59;;;;;;;9.15;5.15;;;;;;;4.90;78.19;101186.59;4990653;28;20084;-45
2023/01/29 07:55:26;;;;;;;7.40;4.45;;;;;;;4.93;78.21;101183.25;4989384;28;20057;-46
2023/01/29 07:57:58;;;;;;;10.00;4.97;;;;;;;4.92;77.99;101184.06;4989855;28;20104;-45
2023/01/29 08:00:25;;;;;;;9.18;4.63;;;;;;;4.93;78.30;101181.53;4989653;28;20049;-46
2023/01/29 08:02:52;;;;;;;10.50;5.13;;;;;;;4.94;77.32;101177.31;4989755;28;20060;-45
2023/01/29 08:05:19;;;;;;;14.20;5.28;;;;;;;4.97;78.22;101172.28;4991047;28;20061;-44
2023/01/29 08:07:52;;;;;;;12.52;5.78;;;;;;;4.96;78.48;101170.53;4987891;28;20046;-45
2023/01/29 08:10:32;;;;;;;9.80;5.20;;;;;;;4.97;78.28;101172.28;4987482;28;20584;-46
2023/01/29 08:13:00;;;;;;;8.55;5.22;;;;;;;4.98;77.96;101174.03;4993589;28;20053;-45
2023/01/29 08:15:28;;;;;;;15.60;6.30;;;;;;;5.00;77.54;101177.56;4986837;28;20051;-46
2023/01/29 08:17:55;;;;;;;11.18;5.47;;;;;;;5.01;78.06;101179.28;4991760;28;20046;-46
2023/01/29 08:20:42;;;;;;;10.57;4.10;;;;;;;5.02;78.61;101186.16;4986970;28;20473;-45
2023/01/29 08:23:14;;;;;;;12.20;4.95;;;;;;;5.05;78.28;101181.16;4990192;28;20133;-45
2023/01/29 08:25:41;;;;;;;12.13;4.97;;;;;;;5.06;77.91;101180.34;4992977;28;20050;-46
2023/01/29 08:28:08;;;;;;;12.23;5.10;;;;;;;5.07;78.24;101174.38;4991933;28;20116;-45
2023/01/29 08:30:35;;;;;;;12.10;5.72;;;;;;;5.09;77.71;101170.19;4992526;28;20046;-46
2023/01/29 08:33:03;;;;;;;12.15;5.65;;;;;;;5.10;78.42;101169.34;4992381;28;20053;-46
2023/01/29 08:35:30;;;;;;;13.07;4.05;;;;;;;5.13;77.87;101174.63;4990931;28;20665;-44
2023/01/29 08:38:00;;;;;;;10.27;5.50;;;;;;;5.13;78.72;101169.47;4992502;28;20058;-45
2023/01/29 08:40:31;;;;;;;17.15;8.25;;;;;;;5.19;78.09;101168.84;4991729;28;20058;-46
2023/01/29 08:43:00;;;;;;;18.13;6.60;;;;;;;5.23;78.26;101164.66;4988463;28;20326;-45
2023/01/29 08:45:33;;;;;;;17.35;5.53;;;;;;;5.24;78.78;101156.19;4988082;28;20053;-45
2023/01/29 08:48:00;;;;;;;16.25;8.27;;;;;;;5.27;78.14;101169.13;4991337;28;20064;-46
2023/01/29 08:50:29;;;;;;;16.45;8.68;;;;;;;5.30;77.39;101169.22;4991170;28;20745;-45
2023/01/29 08:52:58;;;;;;;22.77;9.15;;;;;;;5.32;78.74;101157.31;4987875;28;20046;-45
2023/01/29 08:55:25;;;;;;;14.18;6.35;;;;;;;5.37;78.84;101158.34;4997114;28;20085;-45
2023/01/29 08:57:53;;;;;;;14.05;7.88;;;;;;;5.40;78.68;101157.59;4990323;28;20058;-46
2023/01/29 09:00:20;;;;;;;13.18;6.47;;;;;;;5.44;78.99;101158.59;4990002;28;20051;-44
2023/01/29 09:02:47;;;;;;;15.48;6.18;;;;;;;5.44;77.75;101163.72;4989062;28;20046;-46
2023/01/29 09:05:14;;;;;;;14.95;6.88;;;;;;;5.48;77.85;101160.47;4992606;28;20048;-45
2023/01/29 09:07:41;;;;;;;15.55;9.38;;;;;;;5.51;78.56;101164.00;4989295;28;20053;-45
2023/01/29 09:10:09;;;;;;;16.95;8.27;;;;;;;5.56;78.16;101168.41;4985342;28;20565;-43
2023/01/29 09:12:36;;;;;;;21.92;10.25;;;;;;;5.56;78.02;101166.75;4987185;28;20061;-45
2023/01/29 09:15:02;;;;;;;18.85;9.65;;;;;;;5.60;77.78;101173.75;4990956;28;20050;-47
2023/01/29 09:17:29;;;;;;;21.58;10.27;;;;;;;5.63;78.25;101171.28;4987501;28;20468;-46
2023/01/29 09:19:57;;;;;;;18.67;10.48;;;;;;;5.66;78.75;101171.41;4990885;28;20053;-44
2023/01/29 09:22:24;;;;;;;18.48;10.25;;;;;;;5.70;78.82;101172.38;4995959;28;20042;-44
2023/01/29 09:24:51;;;;;;;20.85;9.65;;;;;;;5.74;77.76;101173.38;4995586;28;20112;-45
2023/01/29 09:27:18;;;;;;;14.77;7.10;;;;;;;5.74;77.68;101173.38;4996674;28;20721;-45
2023/01/29 09:29:45;;;;;;;18.15;9.57;;;;;;;5.75;78.90;101175.97;4999714;28;20042;-45
2023/01/29 09:32:12;;;;;;;16.95;7.65;;;;;;;5.77;78.13;101179.47;4992186;28;20398;-45
2023/01/29 09:34:38;;;;;;;17.27;7.75;;;;;;;5.81;78.95;101174.47;5002186;28;21428;-45
2023/01/29 09:37:05;;;;;;;20.33;9.45;;;;;;;5.81;78.51;101175.31;4991115;28;20053;-46
2023/01/29 09:39:32;;;;;;;16.77;7.75;;;;;;;5.85;78.65;101176.31;4990048;28;20072;-45
2023/01/29 09:47:19;;;;;;;30.15;11.60;;;;;;;6.29;78.04;101178.69;5063241;27;20442;-45
2023/01/29 09:49:51;;;;;;;22.60;9.10;;;;;;;6.12;77.99;101170.41;5063257;28;20432;-45
2023/01/29 09:52:25;;;;;;;18.38;7.28;;;;;;;6.07;79.57;101157.38;5055099;28;20059;-45
2023/01/29 09:57:40;;;;;;;17.33;7.07;;;;;;;6.08;79.33;101153.97;5047063;28;20412;-46
2023/01/29 10:00:13;;;;;;;;;;;;;;;6.00;79.85;101145.09;5034020;28;20049;-46
2023/01/29 10:14:38;;;;;;;29.52;12.00;;;;;;;6.56;78.46;101147.78;5025549;28;20403;-46
2023/01/29 10:20:25;;;;;;;22.15;9.88;;;;;;;6.48;78.53;101148.41;5028512;28;20441;-47
2023/01/29 10:25:49;;;;;;;22.85;9.10;;;;;;;6.54;79.50;101136.59;5065471;27;20407;-48
2023/01/29 10:28:19;;;;;;;26.92;9.68;;;;;;;6.60;79.39;101133.34;5048645;28;20049;-47
2023/01/29 10:30:49;;;;;;;23.75;9.32;;;;;;;6.61;77.98;101127.34;5058275;28;20052;-49
2023/01/29 10:33:23;;;;;;;24.90;10.35;;;;;;;6.65;78.50;101118.91;5054165;28;20045;-48
2023/01/29 10:35:56;;;;;;;23.77;8.57;;;;;;;6.69;78.99;101113.00;5060990;28;20056;-46
2023/01/29 10:47:09;;;;;;;19.42;7.30;;;;;;;6.84;78.00;101101.44;5033216;27;20410;-47
2023/01/29 10:52:52;;;;;;;23.67;8.88;;;;;;;6.86;78.65;101099.75;5101529;27;20956;-46
2023/01/29 11:00:53;;;;;;;19.95;9.43;;;;;;;6.96;77.29;101089.75;5082663;27;20393;-49
2023/01/29 11:03:26;;;;;;;21.77;9.55;;;;;;;6.99;77.28;101089.84;5032901;28;20076;-46
2023/01/29 11:08:39;;;;;;;21.33;7.20;;;;;;;7.03;76.83;101082.22;5060534;27;20888;-47
2023/01/29 11:11:11;;;;;;;21.52;9.73;;;;;;;7.09;78.25;101081.53;5029532;28;20053;-48
2023/01/29 11:13:46;;;;;;;18.25;6.80;;;;;;;7.13;77.32;101075.63;5020623;28;20049;-46
2023/01/29 11:16:13;;;;;;;18.77;8.68;;;;;;;7.20;76.88;101080.13;5033397;28;20124;-48
2023/01/29 11:18:51;;;;;;;16.00;7.63;;;;;;;7.25;77.30;101077.69;5049413;28;20048;-45
2023/01/29 11:21:18;;;;;;;14.38;6.82;;;;;;;7.30;77.24;101070.09;5040389;28;20041;-47
2023/01/29 11:23:45;;;;;;;16.77;6.38;;;;;;;7.28;76.64;101059.75;5034844;28;20083;-48
2023/01/29 11:26:18;;;;;;;15.10;7.07;;;;;;;7.25;77.76;101071.66;5043407;28;20041;-49
2023/01/29 11:28:47;;;;;;;16.00;7.45;;;;;;;7.22;77.13;101056.13;5042026;28;20057;-48
2023/01/29 11:34:15;;;;;;;16.90;6.13;;;;;;;7.24;77.17;101054.44;5058116;27;20409;-49
2023/01/29 11:36:43;;;;;;;15.30;5.90;;;;;;;7.36;76.92;101044.47;4997019;28;20076;-50
2023/01/29 11:42:02;;;;;;;10.98;5.47;;;;;;;7.59;77.47;101036.47;5117279;27;20402;-46
2023/01/29 11:49:52;;;;;;;8.80;4.15;;;;;;;7.93;76.51;101000.31;5062177;27;20396;-46
2023/01/29 11:52:22;;;;;;;10.00;4.10;;;;;;;8.00;76.27;101001.34;5056507;28;20056;-47
2023/01/29 11:54:54;;;;;;;9.15;4.10;;;;;;;8.05;76.63;100989.41;5064341;28;20140;-46
2023/01/29 11:57:26;;;;;;;17.20;5.75;;;;;;;8.15;76.13;100986.22;5070852;28;20580;-46
2023/01/29 11:59:55;;;;;;;14.85;6.50;;;;;;;8.21;75.84;100981.16;5054840;28;20049;-47
2023/01/29 12:02:35;;;;;;;10.57;5.95;;;;;;;8.24;75.87;100970.03;5078469;28;20066;-46
2023/01/29 12:05:13;;;;;;;9.75;4.47;;;;;;;8.33;75.18;100953.88;5077151;27;20044;-47
2023/01/29 12:07:42;;;;;;;9.00;3.75;;;;;;;8.39;75.03;100942.81;5079492;27;20130;-45
2023/01/29 12:15:47;;;;;;;6.97;4.05;;;;;;;8.46;74.83;100937.81;5024702;28;20392;-48
2023/01/29 12:21:10;;;;;;;5.90;3.33;;;;;;;8.45;74.22;100933.47;5037614;28;20407;-50
2023/01/29 12:24:06;;;;;;;6.85;5.07;;;;;;;8.45;74.64;100928.31;5030958;28;20045;-47
2023/01/29 12:26:39;;;;;;;7.28;4.45;;;;;;;8.53;73.89;100931.09;5021844;28;20041;-47
2023/01/29 12:29:33;;;;;;;6.72;4.15;;;;;;;8.61;73.88;100923.47;5043751;28;20145;-48
2023/01/29 12:32:11;;;;;;;6.90;4.88;;;;;;;8.76;74.20;100929.78;5028362;28;20057;-49
2023/01/29 12:37:44;;;;;;;8.20;3.50;;;;;;;9.21;72.80;100915.97;5037317;27;20414;-48
2023/01/29 12:40:14;;;;;;;7.93;2.78;;;;;;;9.20;73.12;100914.22;5012067;28;20132;-48
2023/01/29 12:42:47;;;;;;;5.60;3.40;;;;;;;9.25;73.00;100910.00;5005539;28;20073;-49
2023/01/29 12:45:23;;;;;;;3.92;1.92;;;;;;;9.29;72.43;100903.16;5003082;28;20054;-48
2023/01/29 12:47:55;;;;;;;2.00;1.13;;;;;;;9.28;71.87;100905.75;5023353;28;20046;-49
2023/01/29 12:50:27;;;;;;;2.65;1.23;;;;;;;9.25;71.85;100907.41;5004645;28;20108;-51
2023/01/29 12:55:44;;;;;;;2.15;1.17;;;;;;;9.03;70.31;100905.31;5016627;27;20396;-46
2023/01/29 12:58:15;;;;;;;3.53;2.45;;;;;;;9.02;70.91;100913.91;4988250;28;20054;-47
2023/01/29 13:00:45;;;;;;;2.45;2.20;;;;;;;9.03;71.47;100905.31;4988297;28;20057;-48
2023/01/29 13:08:36;;;;;;;3.92;3.47;;;;;;;9.12;70.85;100893.41;5056103;27;20401;-53
2023/01/29 13:11:10;;;;;;;3.25;2.47;;;;;;;9.11;70.65;100889.09;5055055;28;20044;-48
2023/01/29 13:13:51;;;;;;;2.67;2.40;;;;;;;9.13;70.26;100881.38;5057349;28;20095;-49
2023/01/29 13:16:25;;;;;;;2.55;2.35;;;;;;;9.14;70.10;100888.28;5058408;28;20057;-45
2023/01/29 13:18:56;;;;;;;2.05;1.80;;;;;;;9.19;70.47;100886.63;5054672;28;20076;-47
2023/01/29 13:21:28;;;;;;;4.57;2.67;;;;;;;9.22;70.23;100885.81;5053842;28;20045;-46
2023/01/29 13:24:00;;;;;;;1.85;1.60;;;;;;;9.15;70.28;100871.06;5058041;28;20049;-48
2023/01/29 13:26:27;;;;;;;2.30;2.15;;;;;;;9.15;69.80;100869.31;5058473;28;20641;-48
2023/01/29 13:28:54;;;;;;;1.88;1.77;;;;;;;9.09;68.72;100869.25;5052947;28;20049;-48
2023/01/29 13:31:33;;;;;;;2.05;1.95;;;;;;;8.98;69.16;100867.34;5057415;28;20056;-46
2023/01/29 13:34:27;;;;;;;2.38;2.08;;;;;;;9.00;68.74;100860.50;5056268;28;20055;-50
2023/01/29 13:36:58;;;;;;;2.42;2.15;;;;;;;9.05;68.96;100846.78;5054057;28;20048;-46
2023/01/29 13:39:33;;;;;;;1.95;1.80;;;;;;;8.96;68.98;100845.78;5057034;28;20052;-48
2023/01/29 13:42:02;;;;;;;2.80;2.60;;;;;;;8.94;69.60;100844.88;5056776;28;20045;-48
2023/01/29 13:44:36;;;;;;;1.75;1.60;;;;;;;8.94;69.40;100829.38;5056491;28;20049;-46
2023/01/29 13:47:06;;;;;;;4.60;3.92;;;;;;;8.89;69.38;100836.19;5052663;28;20137;-46
2023/01/29 13:49:39;;;;;;;5.00;3.42;;;;;;;8.90;69.72;100819.84;5058556;28;20076;-46
2023/01/29 13:55:20;;;;;;;1.52;0.88;;;;;;;8.91;69.34;100815.56;5037525;28;20403;-48
2023/01/29 13:57:48;;;;;;;;;;;;;;;8.91;69.65;100813.81;5014273;28;20103;-46
2023/01/29 14:11:34;;;;;;;10.13;4.50;;;;;;;9.12;68.83;100809.84;5026403;27;20818;-47
2023/01/29 14:14:41;;;;;;;6.35;1.60;;;;;;;9.06;68.57;100810.63;5009076;28;20460;-48
2023/01/29 14:17:07;;;;;;;6.35;2.53;;;;;;;9.07;68.99;100808.91;5006816;28;20072;-50
2023/01/29 14:19:34;;;;;;;34.67;11.57;;;;;;;9.03;68.64;100795.06;5016142;28;20099;-47
2023/01/29 14:22:01;;;;;;;9.63;2.80;;;;;;;8.96;68.94;100786.38;5017377;28;20057;-47
2023/01/29 14:24:29;;;;;;;13.00;4.90;;;;;;;8.98;68.82;100786.34;5020324;28;20050;-48
2023/01/29 14:26:56;;;;;;;12.55;5.43;;;;;;;8.98;68.94;100787.25;5016787;28;20046;-50
2023/01/29 14:29:27;;;;;;;3.72;1.80;;;;;;;9.02;69.27;100789.88;5016199;28;20038;-52